Time;durP1;ratioP1;P1;durP2;ratioP2;P2;SDS_P1;SDS_P2;PMS_P1;PMS_P2;Temp;Humidity;BMP_temperature;BMP_pressure;BME280_temperature;BME280_humidity;BME280_pressure;Samples;Min_cycle;Max_cycle;Signal;HPM_P1;HPM_P2
2022/12/01 00:01:40;;;;;;;23.65;14.10;;;179.30;2252.80;;;;;;5092054;28;20028;-88
2022/12/01 00:04:06;;;;;;;23.45;14.95;;;179.30;2252.80;;;;;;5091567;28;20078;-86
2022/12/01 00:06:32;;;;;;;17.83;11.25;;;179.30;2252.80;;;;;;5091079;28;20028;-86
2022/12/01 00:11:42;;;;;;;10.70;6.53;;;179.30;2252.80;;;;;;5092360;28;20035;-86
2022/12/01 00:14:07;;;;;;;10.70;6.22;;;179.30;2252.80;;;;;;5091116;28;20169;-87
2022/12/01 00:16:33;;;;;;;21.23;12.93;;;154.50;2252.80;;;;;;5091151;28;20035;-86
2022/12/01 00:18:59;;;;;;;16.60;10.18;;;154.50;2252.80;;;;;;5091575;28;20035;-85
2022/12/01 00:21:26;;;;;;;16.02;9.85;;;154.50;2252.80;;;;;;5091394;28;20443;-87
2022/12/01 00:23:54;;;;;;;14.35;8.93;;;179.20;2252.80;;;;;;5097954;28;20030;-84
2022/12/01 00:26:21;;;;;;;11.68;6.10;;;179.20;2252.80;;;;;;5104091;28;20030;-84
2022/12/01 00:28:51;;;;;;;55.08;20.05;;;179.20;2252.80;;;;;;5104430;28;20021;-85
2022/12/01 00:31:18;;;;;;;16.70;7.85;;;179.20;2252.80;;;;;;5092186;28;20078;-83
2022/12/01 00:33:43;;;;;;;12.55;6.53;;;179.20;2252.80;;;;;;5093948;28;20034;-83
2022/12/01 00:36:09;;;;;;;11.18;6.47;;;179.20;2252.80;;;;;;5099242;28;20050;-84
2022/12/01 00:38:35;;;;;;;10.90;4.85;;;179.20;2252.80;;;;;;5100782;28;20029;-85
2022/12/01 00:41:01;;;;;;;5.70;3.20;;;179.40;2252.80;;;;;;5099094;28;20032;-86
2022/12/01 00:43:27;;;;;;;5.90;3.00;;;154.50;2252.80;;;;;;5078395;28;20021;-86
2022/12/01 00:45:55;;;;;;;5.75;3.50;;;154.50;2252.80;;;;;;5076840;28;20379;-86
2022/12/01 00:48:21;;;;;;;9.30;5.28;;;154.50;2252.80;;;;;;5076712;28;20055;-86
2022/12/01 00:50:47;;;;;;;6.30;3.63;;;154.50;2252.80;;;;;;5078911;28;20484;-87
2022/12/01 00:53:13;;;;;;;7.05;3.25;;;154.50;2252.80;;;;;;5077094;28;20112;-83
2022/12/01 00:55:39;;;;;;;5.45;2.92;;;154.50;2252.80;;;;;;5075823;28;20052;-87
2022/12/01 00:58:06;;;;;;;5.18;2.90;;;154.50;2252.80;;;;;;5075921;28;20025;-86
2022/12/01 01:00:32;;;;;;;5.40;2.97;;;154.50;2252.80;;;;;;5075834;28;20032;-86
2022/12/01 01:02:58;;;;;;;8.02;4.25;;;154.50;2252.80;;;;;;5075714;28;20120;-87
2022/12/01 01:05:24;;;;;;;10.73;6.32;;;154.50;2252.80;;;;;;5075622;28;20071;-86
2022/12/01 01:07:50;;;;;;;10.55;6.03;;;154.50;2252.80;;;;;;5075431;28;20028;-87
2022/12/01 01:10:16;;;;;;;12.48;4.95;;;154.50;2252.80;;;;;;5075221;28;20032;-85
2022/12/01 01:12:41;;;;;;;8.00;4.43;;;154.50;2252.80;;;;;;5075335;28;20538;-86
2022/12/01 01:15:07;;;;;;;9.90;4.78;;;154.50;2252.80;;;;;;5075291;28;20028;-86
2022/12/01 01:17:33;;;;;;;10.32;5.18;;;154.50;2252.80;;;;;;5074799;28;20032;-86
2022/12/01 01:19:59;;;;;;;7.40;3.58;;;154.50;2252.80;;;;;;5075126;28;20032;-86
2022/12/01 01:22:25;;;;;;;7.97;3.55;;;154.50;2252.80;;;;;;5074726;28;20143;-86
2022/12/01 01:24:50;;;;;;;9.00;4.85;;;154.50;2252.80;;;;;;5075063;28;20074;-87
2022/12/01 01:27:16;;;;;;;8.82;4.57;;;154.40;2252.80;;;;;;5075407;28;20025;-87
2022/12/01 01:29:42;;;;;;;8.50;3.95;;;154.50;2252.80;;;;;;5067480;28;20123;-87
2022/12/01 01:32:08;;;;;;;7.68;4.32;;;154.40;2252.80;;;;;;5055403;28;20033;-87
2022/12/01 01:34:34;;;;;;;7.32;4.03;;;154.40;2252.80;;;;;;5055856;28;20108;-86
2022/12/01 01:36:59;;;;;;;9.15;4.20;;;154.40;2252.80;;;;;;5054930;28;20057;-86
2022/12/01 01:39:25;;;;;;;8.57;4.30;;;154.50;2252.80;;;;;;5054543;28;20036;-86
2022/12/01 01:41:51;;;;;;;6.38;3.92;;;154.50;2252.80;;;;;;5055050;28;20048;-87
2022/12/01 01:44:55;;;;;;;6.05;3.70;;;154.50;2252.80;;;;;;5057271;28;20028;-86
2022/12/01 01:47:38;;;;;;;7.63;4.35;;;154.50;2252.80;;;;;;5074877;28;20044;-87
2022/12/01 01:50:13;;;;;;;8.45;4.68;;;154.50;2252.80;;;;;;5074720;28;20448;-87
2022/12/01 01:52:47;;;;;;;6.25;3.53;;;154.40;2252.80;;;;;;5074857;28;20385;-87
2022/12/01 01:55:14;;;;;;;7.60;4.53;;;154.50;2252.80;;;;;;5074817;28;20479;-87
2022/12/01 01:57:40;;;;;;;9.20;5.10;;;154.50;2252.80;;;;;;5074837;28;20065;-87
2022/12/01 02:00:13;;;;;;;7.72;4.00;;;154.50;2252.80;;;;;;5074780;28;20490;-87
2022/12/01 02:02:43;;;;;;;7.53;3.88;;;154.40;2252.80;;;;;;5075601;28;20029;-87
2022/12/01 02:05:21;;;;;;;4.65;3.10;;;154.50;2252.80;;;;;;5074776;28;20033;-87
2022/12/01 02:07:49;;;;;;;5.75;2.90;;;154.40;2252.80;;;;;;5074470;28;20028;-87
2022/12/01 02:10:21;;;;;;;5.85;3.67;;;154.50;2252.80;;;;;;5074458;28;20074;-86
2022/12/01 02:13:23;;;;;;;13.38;4.97;;;154.40;2252.80;;;;;;5074515;28;20037;-86
2022/12/01 02:16:17;;;;;;;7.70;4.65;;;154.40;2252.80;;;;;;5074316;28;20024;-86
2022/12/01 02:18:49;;;;;;;11.13;5.13;;;154.50;2252.80;;;;;;5073949;28;20025;-86
2022/12/01 02:21:48;;;;;;;7.30;4.50;;;154.40;2252.80;;;;;;5073799;28;20052;-87
2022/12/01 02:24:35;;;;;;;6.15;4.63;;;154.20;2252.80;;;;;;5074131;28;20024;-86
2022/12/01 02:27:22;;;;;;;4.28;2.42;;;154.40;2252.80;;;;;;5074381;28;20020;-86
2022/12/01 02:30:07;;;;;;;4.22;2.40;;;154.20;2252.80;;;;;;5074463;28;20044;-87
2022/12/01 02:32:48;;;;;;;6.18;2.72;;;154.30;2252.80;;;;;;5074481;28;20037;-87
2022/12/01 02:35:23;;;;;;;5.05;2.70;;;154.20;2252.80;;;;;;5073545;28;20464;-86
2022/12/01 02:38:10;;;;;;;11.15;3.50;;;154.20;2252.80;;;;;;5072696;28;20115;-87
2022/12/01 02:40:42;;;;;;;6.63;3.05;;;154.20;2252.80;;;;;;5053603;28;20419;-86
2022/12/01 02:43:26;;;;;;;5.53;2.35;;;154.10;2252.80;;;;;;5053657;28;20025;-87
2022/12/01 02:46:17;;;;;;;5.82;3.80;;;154.20;2252.80;;;;;;5053804;28;20025;-87
2022/12/01 02:48:46;;;;;;;6.38;3.50;;;154.10;2252.80;;;;;;5053653;28;20074;-85
2022/12/01 02:51:17;;;;;;;4.95;3.08;;;154.00;2252.80;;;;;;5053630;28;20507;-87
2022/12/01 02:53:43;;;;;;;12.30;4.47;;;154.10;2252.80;;;;;;5053525;28;20063;-87
2022/12/01 02:56:12;;;;;;;4.97;2.15;;;154.10;2252.80;;;;;;5053142;28;20032;-86
2022/12/01 02:58:38;;;;;;;5.28;2.90;;;154.00;2252.80;;;;;;5053542;28;20032;-87
2022/12/01 03:01:49;;;;;;;17.17;8.88;;;154.00;2252.80;;;;;;5053511;28;20029;-87
2022/12/01 03:04:23;;;;;;;6.85;3.83;;;153.90;2252.80;;;;;;5034837;28;20044;-87
2022/12/01 03:07:18;;;;;;;6.80;3.83;;;153.90;2252.80;;;;;;5053875;28;20123;-87
2022/12/01 03:10:04;;;;;;;6.43;2.90;;;153.90;2252.80;;;;;;5073534;28;20029;-87
2022/12/01 03:12:44;;;;;;;3.55;1.90;;;153.80;2252.80;;;;;;5074699;28;20024;-87
2022/12/01 03:15:19;;;;;;;11.40;5.90;;;153.70;2252.80;;;;;;5073403;28;20021;-87
2022/12/01 03:18:23;;;;;;;10.27;5.07;;;153.70;2252.80;;;;;;5073208;28;20025;-87
2022/12/01 03:21:12;;;;;;;14.02;7.07;;;153.80;2252.80;;;;;;5073200;28;20044;-87
2022/12/01 03:23:43;;;;;;;23.50;12.00;;;153.80;2252.80;;;;;;5073359;28;20448;-87
2022/12/01 03:26:15;;;;;;;19.05;9.88;;;153.70;2252.80;;;;;;5073632;28;20093;-87
2022/12/01 03:28:47;;;;;;;6.57;4.17;;;153.70;2252.80;;;;;;5074596;28;20024;-88
2022/12/01 03:31:22;;;;;;;17.20;8.50;;;153.80;2252.80;;;;;;5073387;28;20357;-88
2022/12/01 03:34:03;;;;;;;8.20;4.07;;;153.80;2252.80;;;;;;5073209;28;20024;-87
2022/12/01 03:36:43;;;;;;;6.38;3.20;;;153.80;2252.80;;;;;;5073338;28;20376;-88
2022/12/01 03:39:18;;;;;;;12.95;4.32;;;153.70;2252.80;;;;;;5073570;28;20414;-87
2022/12/01 03:42:27;;;;;;;4.78;2.28;;;153.80;2252.80;;;;;;5073762;28;20032;-87
2022/12/01 03:44:57;;;;;;;12.30;6.80;;;153.80;2252.80;;;;;;5073281;28;20025;-88
2022/12/01 03:47:28;;;;;;;5.97;2.67;;;153.90;2252.80;;;;;;5073489;28;20016;-87
2022/12/01 03:49:55;;;;;;;4.35;1.90;;;153.80;2252.80;;;;;;5073191;28;20082;-87
2022/12/01 03:52:21;;;;;;;7.45;3.00;;;153.90;2252.80;;;;;;5073167;28;20025;-87
2022/12/01 03:55:01;;;;;;;7.22;3.67;;;153.90;2252.80;;;;;;5073507;28;20078;-87
2022/12/01 03:57:43;;;;;;;8.48;5.53;;;153.90;2252.80;;;;;;5073241;28;20028;-87
2022/12/01 04:00:10;;;;;;;16.05;7.47;;;153.90;2252.80;;;;;;5073404;28;20477;-87
2022/12/01 04:02:36;;;;;;;14.43;6.28;;;153.90;2252.80;;;;;;5073037;28;20408;-88
2022/12/01 04:05:04;;;;;;;10.45;5.50;;;153.90;2252.80;;;;;;5073122;28;20060;-88
2022/12/01 04:07:30;;;;;;;15.50;7.30;;;153.90;2252.80;;;;;;5073455;28;20062;-87
2022/12/01 04:09:56;;;;;;;6.45;2.63;;;153.90;2252.80;;;;;;5077929;28;20024;-87
2022/12/01 04:12:34;;;;;;;5.00;2.42;;;153.90;2252.80;;;;;;5076599;28;20066;-88
2022/12/01 04:15:06;;;;;;;10.35;4.43;;;153.90;2252.80;;;;;;5076585;28;20052;-87
2022/12/01 04:17:32;;;;;;;;;;;154.00;2252.80;;;;;;5077260;28;20464;-87
2022/12/01 04:19:58;;;;;;;22.55;14.20;;;154.00;2252.80;;;;;;5076523;28;19905;-87
2022/12/01 04:22:24;;;;;;;15.60;8.63;;;153.90;2252.80;;;;;;5077953;28;20049;-87
2022/12/01 04:24:51;;;;;;;12.10;7.03;;;153.90;2252.80;;;;;;5076486;28;20054;-87
2022/12/01 04:27:17;;;;;;;7.60;4.50;;;153.90;2252.80;;;;;;5076096;28;20121;-87
2022/12/01 04:29:43;;;;;;;8.27;4.28;;;154.20;2252.80;;;;;;5076414;28;20590;-87
2022/12/01 04:32:09;;;;;;;7.68;4.00;;;153.90;2252.80;;;;;;5076216;28;20070;-87
2022/12/01 04:34:34;;;;;;;6.63;3.30;;;153.90;2252.80;;;;;;5076142;28;20123;-87
2022/12/01 04:37:00;;;;;;;13.00;2.97;;;153.90;2252.80;;;;;;5075839;28;20025;-87
2022/12/01 04:39:26;;;;;;;12.63;9.65;;;153.90;2252.80;;;;;;5076153;28;20122;-87
2022/12/01 04:41:52;;;;;;;6.43;4.63;;;153.80;2252.80;;;;;;5076229;28;20032;-87
2022/12/01 04:44:18;;;;;;;11.88;7.15;;;153.80;2252.80;;;;;;5077502;28;20100;-87
2022/12/01 04:46:43;;;;;;;12.40;6.88;;;153.80;2252.80;;;;;;5076880;28;20033;-83
2022/12/01 04:49:09;;;;;;;18.75;10.80;;;153.90;2252.80;;;;;;5088790;28;20024;-82
2022/12/01 04:51:35;;;;;;;13.52;7.93;;;153.90;2252.80;;;;;;5087619;28;20033;-82
2022/12/01 04:54:02;;;;;;;9.07;6.50;;;153.90;2252.80;;;;;;5082005;28;20086;-87
2022/12/01 04:56:28;;;;;;;12.98;8.75;;;153.90;2252.80;;;;;;5076738;28;20051;-87
2022/12/01 04:58:54;;;;;;;7.45;4.60;;;153.90;2252.80;;;;;;5077096;28;20491;-87
2022/12/01 05:01:19;;;;;;;6.82;3.05;;;153.90;2252.80;;;;;;5075900;28;20456;-88
2022/12/01 05:03:48;;;;;;;9.95;4.95;;;154.00;2252.80;;;;;;5075730;28;20031;-87
2022/12/01 05:06:23;;;;;;;10.93;6.97;;;154.00;2252.80;;;;;;5075543;28;20029;-87
2022/12/01 05:08:50;;;;;;;17.33;9.50;;;154.00;2252.80;;;;;;5075722;28;20024;-88
2022/12/01 05:11:17;;;;;;;11.65;6.30;;;154.00;2252.80;;;;;;5075597;28;20036;-88
2022/12/01 05:13:46;;;;;;;6.80;4.13;;;154.10;2252.80;;;;;;5075599;28;20035;-87
2022/12/01 05:16:18;;;;;;;10.95;4.47;;;154.00;2252.80;;;;;;5075361;28;20074;-87
2022/12/01 05:18:48;;;;;;;13.47;8.50;;;154.00;2252.80;;;;;;5075708;28;20028;-87
2022/12/01 05:21:13;;;;;;;15.70;8.45;;;154.00;2252.80;;;;;;5075138;28;20347;-87
2022/12/01 05:23:39;;;;;;;15.68;8.73;;;154.00;2252.80;;;;;;5076699;28;20024;-88
2022/12/01 05:26:07;;;;;;;16.42;7.63;;;154.00;2252.80;;;;;;5075484;28;20112;-87
2022/12/01 05:28:33;;;;;;;17.42;9.43;;;154.10;2252.80;;;;;;5075172;28;20140;-87
2022/12/01 05:30:59;;;;;;;13.45;7.70;;;154.10;2252.80;;;;;;5075159;28;20035;-87
2022/12/01 05:33:26;;;;;;;18.83;9.32;;;154.10;2252.80;;;;;;5075292;28;20111;-87
2022/12/01 05:35:53;;;;;;;15.73;8.70;;;154.10;2252.80;;;;;;5075066;28;20460;-87
2022/12/01 05:38:19;;;;;;;7.90;4.75;;;154.10;2252.80;;;;;;5075019;28;20491;-87
2022/12/01 05:40:53;;;;;;;15.10;6.60;;;153.80;2252.80;;;;;;5076023;28;20024;-87
2022/12/01 05:43:20;;;;;;;14.20;7.80;;;154.10;2252.80;;;;;;5076141;28;20399;-87
2022/12/01 05:45:46;;;;;;;15.20;10.18;;;154.10;2252.80;;;;;;5062722;28;20040;-87
2022/12/01 05:48:12;;;;;;;17.45;11.20;;;154.20;2252.80;;;;;;5055208;28;20029;-86
2022/12/01 05:50:38;;;;;;;16.73;10.98;;;154.20;2252.80;;;;;;5054516;28;20033;-87
2022/12/01 05:53:05;;;;;;;19.88;12.40;;;154.20;2252.80;;;;;;5055140;28;20029;-86
2022/12/01 05:55:33;;;;;;;22.05;14.55;;;154.20;2252.80;;;;;;5054773;28;20029;-87
2022/12/01 05:57:59;;;;;;;18.05;11.15;;;154.20;2252.80;;;;;;5054700;28;20058;-87
2022/12/01 06:00:25;;;;;;;16.88;11.20;;;154.10;2252.80;;;;;;5054734;28;20028;-88
2022/12/01 06:02:51;;;;;;;23.75;13.05;;;154.10;2252.80;;;;;;5054839;28;20036;-87
2022/12/01 06:05:17;;;;;;;23.98;13.82;;;154.10;2252.80;;;;;;5054671;28;20025;-87
2022/12/01 06:07:42;;;;;;;27.45;17.10;;;154.20;2252.80;;;;;;5054732;28;20025;-87
2022/12/01 06:10:09;;;;;;;35.72;20.55;;;154.20;2252.80;;;;;;5054746;28;20077;-87
2022/12/01 06:12:35;;;;;;;63.92;37.40;;;154.20;2252.80;;;;;;5054367;28;20124;-87
2022/12/01 06:15:02;;;;;;;27.27;16.88;;;154.20;2252.80;;;;;;5062772;28;20029;-88
2022/12/01 06:17:28;;;;;;;18.67;11.20;;;154.20;2252.80;;;;;;5074141;28;20534;-87
2022/12/01 06:19:54;;;;;;;31.05;20.35;;;154.20;2252.80;;;;;;5074211;28;20029;-87
2022/12/01 06:22:20;;;;;;;27.50;17.95;;;154.20;2252.80;;;;;;5073810;28;20049;-87
2022/12/01 06:24:45;;;;;;;16.50;11.15;;;154.20;2252.80;;;;;;5074209;28;20099;-87
2022/12/01 06:27:11;;;;;;;21.25;13.70;;;154.20;2252.80;;;;;;5074315;28;20033;-87
2022/12/01 06:29:37;;;;;;;19.08;13.25;;;154.30;2252.80;;;;;;5074118;28;20028;-87
2022/12/01 06:32:03;;;;;;;20.70;12.48;;;154.20;2252.80;;;;;;5073446;28;20031;-87
2022/12/01 06:34:29;;;;;;;19.48;10.75;;;154.20;2252.80;;;;;;5074087;28;20052;-86
2022/12/01 06:36:54;;;;;;;11.77;8.13;;;154.20;2252.80;;;;;;5074106;28;20080;-87
2022/12/01 06:39:20;;;;;;;20.17;13.07;;;154.20;2252.80;;;;;;5074143;28;20025;-87
2022/12/01 06:41:46;;;;;;;30.25;17.95;;;154.20;2252.80;;;;;;5073996;28;20071;-87
2022/12/01 06:44:12;;;;;;;21.23;11.93;;;154.30;2252.80;;;;;;5073956;28;20115;-87
2022/12/01 06:46:38;;;;;;;19.52;10.38;;;154.40;2252.80;;;;;;5073822;28;20052;-87
2022/12/01 06:49:04;;;;;;;18.35;9.70;;;154.30;2252.80;;;;;;5074663;28;20082;-86
2022/12/01 06:51:32;;;;;;;17.77;11.80;;;154.30;2252.80;;;;;;5074004;28;20079;-87
2022/12/01 06:53:58;;;;;;;25.65;16.02;;;154.40;2252.80;;;;;;5073627;28;20020;-87
2022/12/01 06:56:24;;;;;;;35.65;19.50;;;154.40;2252.80;;;;;;5074675;28;20029;-87
2022/12/01 06:58:51;;;;;;;32.33;19.65;;;154.40;2252.80;;;;;;5073828;28;20050;-87
2022/12/01 07:01:18;;;;;;;26.90;17.35;;;154.40;2252.80;;;;;;5073541;28;20056;-87
2022/12/01 07:03:48;;;;;;;19.50;12.73;;;154.40;2252.80;;;;;;5074257;28;20165;-87
2022/12/01 07:06:15;;;;;;;68.85;43.30;;;154.40;2252.80;;;;;;5073885;28;20076;-87
2022/12/01 07:08:41;;;;;;;74.90;47.90;;;154.40;2252.80;;;;;;5073672;28;20025;-87
2022/12/01 07:11:09;;;;;;;58.92;39.28;;;154.40;2252.80;;;;;;5073653;28;20415;-87
2022/12/01 07:13:35;;;;;;;28.65;18.95;;;154.40;2252.80;;;;;;5073656;28;20163;-87
2022/12/01 07:16:02;;;;;;;347.88;179.63;;;154.40;2252.80;;;;;;5073735;28;20054;-87
2022/12/01 07:18:28;;;;;;;181.48;100.00;;;154.40;2252.80;;;;;;5073540;28;20031;-87
2022/12/01 07:21:01;;;;;;;150.77;89.15;;;154.40;2252.80;;;;;;5073424;28;20048;-86
2022/12/01 07:23:27;;;;;;;69.30;42.58;;;154.40;2252.80;;;;;;5073551;28;20051;-86
2022/12/01 07:26:02;;;;;;;40.05;27.67;;;154.40;2252.80;;;;;;5073541;28;20123;-86
2022/12/01 07:28:29;;;;;;;29.15;18.98;;;154.40;2252.80;;;;;;5074175;28;20027;-86
2022/12/01 07:31:20;;;;;;;24.27;18.15;;;154.30;2252.80;;;;;;5073542;28;20447;-86
2022/12/01 07:33:46;;;;;;;24.92;15.32;;;154.30;2252.80;;;;;;5073445;28;20032;-86
2022/12/01 07:36:12;;;;;;;24.63;14.48;;;154.30;2252.80;;;;;;5074690;28;20080;-89
2022/12/01 07:38:39;;;;;;;36.13;23.65;;;154.20;2252.80;;;;;;5074805;28;20116;-87
2022/12/01 07:41:07;;;;;;;85.88;49.45;;;154.30;2252.80;;;;;;5073688;28;20059;-87
2022/12/01 07:43:34;;;;;;;125.90;73.03;;;154.30;2252.80;;;;;;5076912;28;20025;-86
2022/12/01 07:46:12;;;;;;;44.75;28.27;;;154.30;2252.80;;;;;;5078746;28;20539;-86
2022/12/01 07:48:39;;;;;;;19.88;13.05;;;154.30;2252.80;;;;;;5080153;28;20590;-86
2022/12/01 07:51:07;;;;;;;25.45;18.67;;;154.30;2252.80;;;;;;5083187;28;20039;-88
2022/12/01 07:53:34;;;;;;;25.45;15.60;;;154.30;2252.80;;;;;;5079188;28;20029;-87
2022/12/01 07:56:00;;;;;;;26.27;18.63;;;154.40;2252.80;;;;;;5081569;28;20021;-86
2022/12/01 07:58:26;;;;;;;24.77;18.63;;;154.40;2252.80;;;;;;5081657;28;20036;-87
2022/12/01 08:00:52;;;;;;;46.70;31.70;;;154.40;2252.80;;;;;;5083614;28;20025;-88
2022/12/01 08:03:19;;;;;;;24.88;18.63;;;154.30;2252.80;;;;;;5082660;28;20027;-85
2022/12/01 08:05:45;;;;;;;22.42;16.13;;;154.00;2252.80;;;;;;5084330;28;20028;-84
2022/12/01 08:08:11;;;;;;;27.27;19.88;;;154.40;2252.80;;;;;;5081155;28;20488;-87
2022/12/01 08:10:36;;;;;;;45.78;29.05;;;154.50;2252.80;;;;;;5081263;28;20025;-86
2022/12/01 08:13:02;;;;;;;29.00;18.27;;;154.40;2252.80;;;;;;5080285;28;20028;-86
2022/12/01 08:15:28;;;;;;;22.05;14.02;;;154.40;2252.80;;;;;;5076608;28;20119;-86
2022/12/01 08:17:54;;;;;;;23.35;15.65;;;154.40;2252.80;;;;;;5076474;28;20510;-86
2022/12/01 08:20:20;;;;;;;29.88;19.70;;;154.40;2252.80;;;;;;5076478;28;20031;-86
2022/12/01 08:22:46;;;;;;;25.92;17.17;;;154.40;2252.80;;;;;;5076396;28;20136;-86
2022/12/01 08:25:12;;;;;;;23.58;15.13;;;154.40;2252.80;;;;;;5076766;28;20032;-86
2022/12/01 08:27:38;;;;;;;23.88;14.07;;;154.40;2252.80;;;;;;5076385;28;20384;-86
2022/12/01 08:30:05;;;;;;;26.60;18.00;;;154.40;2252.80;;;;;;5076411;28;20025;-86
2022/12/01 08:32:31;;;;;;;22.90;15.25;;;154.20;2252.80;;;;;;5076052;28;20028;-86
2022/12/01 08:34:56;;;;;;;54.40;29.95;;;154.30;2252.80;;;;;;5076373;28;20369;-86
2022/12/01 08:37:22;;;;;;;144.30;70.90;;;154.30;2252.80;;;;;;5076262;28;20016;-86
2022/12/01 08:39:48;;;;;;;42.42;26.15;;;154.30;2252.80;;;;;;5076354;28;20067;-86
2022/12/01 08:42:14;;;;;;;32.97;23.10;;;154.30;2252.80;;;;;;5076165;28;20035;-86
2022/12/01 08:44:39;;;;;;;36.13;23.75;;;154.30;2252.80;;;;;;5076485;28;20067;-86
2022/12/01 08:47:05;;;;;;;28.92;19.05;;;154.30;2252.80;;;;;;5076309;28;20044;-86
2022/12/01 08:49:31;;;;;;;28.95;17.27;;;154.20;2252.80;;;;;;5075578;28;20491;-86
2022/12/01 08:51:57;;;;;;;30.98;21.48;;;154.30;2252.80;;;;;;5075783;28;20050;-86
2022/12/01 08:54:22;;;;;;;31.27;21.38;;;154.20;2252.80;;;;;;5075331;28;20086;-86
2022/12/01 08:56:48;;;;;;;29.10;20.35;;;154.30;2252.80;;;;;;5075785;28;20052;-86
2022/12/01 08:59:14;;;;;;;35.25;23.10;;;154.30;2252.80;;;;;;5075800;28;20024;-86
2022/12/01 09:02:00;;;;;;;27.90;20.70;;;154.30;2252.80;;;;;;5075849;28;20033;-87
2022/12/01 09:04:26;;;;;;;40.55;27.67;;;154.40;2252.80;;;;;;5076848;28;20056;-87
2022/12/01 09:06:54;;;;;;;49.08;32.20;;;154.40;2252.80;;;;;;5071852;28;20074;-87
2022/12/01 09:09:27;;;;;;;32.53;23.45;;;154.30;2252.80;;;;;;5076532;28;20029;-87
2022/12/01 09:11:53;;;;;;;44.75;28.85;;;154.40;2252.80;;;;;;5078657;28;20025;-83
2022/12/01 09:14:20;;;;;;;41.95;27.80;;;154.40;2252.80;;;;;;5085949;28;20048;-81
2022/12/01 09:16:51;;;;;;;38.80;25.73;;;154.30;2252.80;;;;;;5087034;28;20032;-83
2022/12/01 09:19:18;;;;;;;36.97;24.20;;;154.30;2252.80;;;;;;5078039;28;20082;-85
2022/12/01 09:21:44;;;;;;;32.42;22.10;;;154.30;2252.80;;;;;;5074982;28;20349;-87
2022/12/01 09:24:12;;;;;;;35.30;24.70;;;179.20;2252.80;;;;;;5075464;28;20479;-86
2022/12/01 09:26:38;;;;;;;56.20;34.58;;;154.20;2252.80;;;;;;5075706;28;20147;-87
2022/12/01 09:29:07;;;;;;;48.53;31.70;;;154.10;2252.80;;;;;;5075377;28;20060;-86
2022/12/01 09:31:33;;;;;;;19.30;12.57;;;154.10;2252.80;;;;;;5075329;28;20078;-87
2022/12/01 09:34:05;;;;;;;21.77;16.17;;;154.10;2252.80;;;;;;5075325;28;20028;-87
2022/12/01 09:36:33;;;;;;;23.05;16.92;;;154.00;2252.80;;;;;;5075127;28;20020;-87
2022/12/01 09:38:59;;;;;;;31.27;21.13;;;154.10;2252.80;;;;;;5075065;28;20064;-87
2022/12/01 09:41:39;;;;;;;57.63;38.28;;;154.10;2252.80;;;;;;5075125;28;20075;-87
2022/12/01 09:44:21;;;;;;;34.10;23.75;;;154.10;2252.80;;;;;;5075451;28;20023;-87
2022/12/01 09:47:07;;;;;;;28.77;20.17;;;154.20;2252.80;;;;;;5075557;28;20029;-87
2022/12/01 09:49:45;;;;;;;35.13;20.60;;;154.20;2252.80;;;;;;5075139;28;20035;-87
2022/12/01 09:52:13;;;;;;;40.20;26.55;;;154.20;2252.80;;;;;;5075165;28;20067;-87
2022/12/01 09:54:40;;;;;;;46.05;29.27;;;154.20;2252.80;;;;;;5075468;28;20024;-85
2022/12/01 09:57:10;;;;;;;30.88;22.15;;;154.10;2252.80;;;;;;5075239;28;20362;-85
2022/12/01 09:59:41;;;;;;;26.30;18.98;;;154.10;2252.80;;;;;;5074327;28;20020;-87
2022/12/01 10:02:23;;;;;;;24.73;15.50;;;154.10;2252.80;;;;;;5075204;28;20029;-86
2022/12/01 10:04:51;;;;;;;22.30;15.73;;;154.00;2252.80;;;;;;5075049;28;20021;-84
2022/12/01 10:07:29;;;;;;;19.80;14.40;;;154.00;2252.80;;;;;;5075082;28;20020;-86
2022/12/01 10:10:13;;;;;;;23.25;14.73;;;153.90;2252.80;;;;;;5074456;28;20418;-87
2022/12/01 10:12:42;;;;;;;23.70;15.27;;;153.90;2252.80;;;;;;5074732;28;20036;-87
2022/12/01 10:15:26;;;;;;;38.75;24.88;;;153.90;2252.80;;;;;;5075723;28;20139;-88
2022/12/01 10:18:37;;;;;;;32.58;18.98;;;154.00;2252.80;;;;;;5074569;28;20456;-87
2022/12/01 10:21:26;;;;;;;29.00;20.20;;;153.90;2252.80;;;;;;5053695;28;20094;-88
2022/12/01 10:24:10;;;;;;;21.38;15.25;;;154.00;2252.80;;;;;;5073806;28;20024;-88
2022/12/01 10:26:58;;;;;;;16.20;10.05;;;153.90;2252.80;;;;;;5074737;28;20090;-87
2022/12/01 10:29:39;;;;;;;26.77;15.52;;;153.70;2252.80;;;;;;5073899;28;20119;-87
2022/12/01 10:32:18;;;;;;;22.85;13.38;;;153.70;2252.80;;;;;;5074092;28;20025;-87
2022/12/01 10:34:46;;;;;;;19.17;13.60;;;153.60;2252.80;;;;;;5074517;28;20028;-86
2022/12/01 10:37:26;;;;;;;25.40;15.18;;;128.80;2252.80;;;;;;5073853;28;20082;-86
2022/12/01 10:39:54;;;;;;;23.67;12.77;;;128.90;2252.80;;;;;;5074269;28;20021;-87
2022/12/01 10:42:46;;;;;;;32.05;19.35;;;128.90;2252.80;;;;;;5075965;28;20031;-88
2022/12/01 10:45:24;;;;;;;54.53;32.05;;;128.90;2252.80;;;;;;5074084;28;20028;-88
2022/12/01 10:48:16;;;;;;;135.80;77.88;;;128.80;2252.80;;;;;;5075473;28;20056;-89
2022/12/01 10:50:45;;;;;;;42.88;23.20;;;128.80;2252.80;;;;;;5074511;28;20119;-87
2022/12/01 10:53:30;;;;;;;75.80;44.83;;;128.70;2252.80;;;;;;5073626;28;20070;-87
2022/12/01 10:56:12;;;;;;;53.65;31.38;;;128.80;2252.80;;;;;;5073302;28;20039;-85
2022/12/01 10:58:48;;;;;;;48.35;29.48;;;128.90;2252.80;;;;;;5073378;28;20021;-87
2022/12/01 11:01:26;;;;;;;40.85;23.67;;;128.80;2252.80;;;;;;5073369;28;20365;-86
2022/12/01 11:04:00;;;;;;;48.80;33.33;;;128.80;2252.80;;;;;;5073802;28;20115;-85
2022/12/01 11:06:28;;;;;;;50.42;38.40;;;128.80;2252.80;;;;;;5075744;28;20063;-89
2022/12/01 11:09:14;;;;;;;37.35;21.77;;;128.70;2252.80;;;;;;5076507;28;20052;-89
2022/12/01 11:11:40;;;;;;;56.35;32.25;;;128.70;2252.80;;;;;;5075304;28;20681;-89
2022/12/01 11:14:23;;;;;;;58.30;35.72;;;128.80;2252.80;;;;;;5074299;28;20032;-88
2022/12/01 11:16:51;;;;;;;48.50;32.42;;;128.60;2252.80;;;;;;5073845;28;20122;-89
2022/12/01 11:19:32;;;;;;;36.00;24.85;;;128.50;2252.80;;;;;;5073967;28;20040;-89
2022/12/01 11:22:01;;;;;;;39.63;25.70;;;128.40;2252.80;;;;;;5073215;28;20071;-88
2022/12/01 11:24:52;;;;;;;48.90;32.70;;;128.30;2252.80;;;;;;5073329;28;20052;-89
2022/12/01 11:27:23;;;;;;;32.33;24.05;;;128.40;2252.80;;;;;;5074578;28;20035;-89
2022/12/01 11:30:03;;;;;;;35.70;24.77;;;128.30;2252.80;;;;;;5073478;28;20361;-86
2022/12/01 11:32:38;;;;;;;29.02;20.65;;;128.20;2252.80;;;;;;5068308;28;20071;-90
2022/12/01 11:35:25;;;;;;;21.60;14.32;;;128.10;2252.80;;;;;;5073347;28;20021;-88
2022/12/01 11:37:57;;;;;;;31.63;21.20;;;128.10;2099.20;;;;;;5069729;28;20107;-85
2022/12/01 11:40:29;;;;;;;20.35;13.77;;;128.20;2252.80;;;;;;5053038;28;20021;-84
2022/12/01 11:42:58;;;;;;;52.42;39.97;;;128.30;2252.80;;;;;;5070004;28;20468;-88
2022/12/01 11:45:31;;;;;;;25.05;19.17;;;128.30;2252.80;;;;;;5073454;28;20060;-89
2022/12/01 11:48:23;;;;;;;13.70;8.25;;;128.20;2252.80;;;;;;5074920;28;20036;-90
2022/12/01 11:51:03;;;;;;;31.58;28.08;;;103.30;2227.20;;;;;;5080123;28;20036;-88
2022/12/01 11:53:32;;;;;;;25.50;21.13;;;103.30;2227.20;;;;;;5097524;28;20028;-89
2022/12/01 11:56:23;;;;;;;23.50;18.33;;;103.30;2227.20;;;;;;5097567;28;20034;-85
2022/12/01 11:59:11;;;;;;;18.05;15.63;;;103.20;2227.20;;;;;;5066550;28;20032;-89
2022/12/01 12:01:43;;;;;;;19.88;16.13;;;103.10;2048.00;;;;;;5074937;28;20059;-89
2022/12/01 12:04:35;;;;;;;11.70;8.75;;;103.10;2227.20;;;;;;5075075;28;20025;-88
2022/12/01 12:07:07;;;;;;;18.42;14.32;;;103.20;2227.20;;;;;;5057841;28;20036;-87
2022/12/01 12:09:57;;;;;;;19.25;13.20;;;103.10;2227.20;;;;;;5069967;28;20033;-89
2022/12/01 12:13:12;;;;;;;18.10;12.02;;;103.20;2227.20;;;;;;5069947;28;20029;-89
2022/12/01 12:15:59;;;;;;;22.85;15.30;;;103.10;2227.20;;;;;;5055974;28;20086;-88
2022/12/01 12:18:45;;;;;;;23.00;18.83;;;103.20;2227.20;;;;;;5057184;28;20380;-87
2022/12/01 12:21:33;;;;;;;35.95;22.90;;;103.20;2227.20;;;;;;5051915;28;20040;-89
2022/12/01 12:24:22;;;;;;;34.70;26.00;;;103.30;2227.20;;;;;;5069120;28;20025;-87
2022/12/01 12:27:16;;;;;;;58.85;36.60;;;103.30;2227.20;;;;;;5053361;28;20048;-89
2022/12/01 12:30:04;;;;;;;77.93;44.42;;;128.10;2252.80;;;;;;5054878;28;20024;-86
2022/12/01 12:33:07;;;;;;;57.92;35.33;;;128.10;2252.80;;;;;;5057129;28;20036;-87